sensor_id;sensor_type;location;lat;lon;timestamp;P1;durP1;ratioP1;P2;durP2;ratioP2
55758;SDS011;41678;52.126;20.664;2023-04-03T00:04:45;3.85;;;1.38;;
55758;SDS011;41678;52.126;20.664;2023-04-03T00:10:05;3.60;;;1.00;;
55758;SDS011;41678;52.126;20.664;2023-04-03T00:15:25;4.50;;;1.52;;
55758;SDS011;41678;52.126;20.664;2023-04-03T00:20:44;2.35;;;0.85;;
55758;SDS011;41678;52.126;20.664;2023-04-03T00:26:04;4.53;;;1.00;;
55758;SDS011;41678;52.126;20.664;2023-04-03T00:31:24;5.70;;;1.85;;
55758;SDS011;41678;52.126;20.664;2023-04-03T00:36:44;4.57;;;1.23;;
55758;SDS011;41678;52.126;20.664;2023-04-03T00:42:03;2.53;;;0.90;;
55758;SDS011;41678;52.126;20.664;2023-04-03T00:47:23;3.55;;;1.23;;
55758;SDS011;41678;52.126;20.664;2023-04-03T00:52:44;4.70;;;1.02;;
55758;SDS011;41678;52.126;20.664;2023-04-03T01:03:27;2.22;;;0.70;;
55758;SDS011;41678;52.126;20.664;2023-04-03T01:08:48;7.70;;;1.10;;
55758;SDS011;41678;52.126;20.664;2023-04-03T01:14:09;5.00;;;1.10;;
55758;SDS011;41678;52.126;20.664;2023-04-03T01:19:29;1.58;;;0.75;;
55758;SDS011;41678;52.126;20.664;2023-04-03T01:24:50;5.40;;;1.25;;
55758;SDS011;41678;52.126;20.664;2023-04-03T01:30:13;0.73;;;0.57;;
55758;SDS011;41678;52.126;20.664;2023-04-03T01:35:36;1.70;;;0.57;;
55758;SDS011;41678;52.126;20.664;2023-04-03T01:40:56;5.22;;;1.17;;
55758;SDS011;41678;52.126;20.664;2023-04-03T01:46:17;2.55;;;0.90;;
55758;SDS011;41678;52.126;20.664;2023-04-03T01:51:37;4.07;;;1.80;;
55758;SDS011;41678;52.126;20.664;2023-04-03T01:56:57;0.40;;;0.40;;
55758;SDS011;41678;52.126;20.664;2023-04-03T02:02:17;4.95;;;0.85;;
55758;SDS011;41678;52.126;20.664;2023-04-03T02:07:37;1.35;;;0.68;;
55758;SDS011;41678;52.126;20.664;2023-04-03T02:12:56;1.88;;;0.90;;
55758;SDS011;41678;52.126;20.664;2023-04-03T02:18:17;1.95;;;0.80;;
55758;SDS011;41678;52.126;20.664;2023-04-03T02:23:37;1.73;;;0.65;;
55758;SDS011;41678;52.126;20.664;2023-04-03T02:28:57;11.73;;;1.15;;
55758;SDS011;41678;52.126;20.664;2023-04-03T02:34:17;7.72;;;1.48;;
55758;SDS011;41678;52.126;20.664;2023-04-03T02:39:38;2.88;;;0.88;;
55758;SDS011;41678;52.126;20.664;2023-04-03T02:44:57;3.78;;;0.70;;
55758;SDS011;41678;52.126;20.664;2023-04-03T02:55:39;0.95;;;0.50;;
55758;SDS011;41678;52.126;20.664;2023-04-03T03:00:59;0.65;;;0.35;;
55758;SDS011;41678;52.126;20.664;2023-04-03T03:06:19;5.97;;;0.75;;
55758;SDS011;41678;52.126;20.664;2023-04-03T03:11:39;1.95;;;0.68;;
55758;SDS011;41678;52.126;20.664;2023-04-03T03:16:59;4.38;;;0.55;;
55758;SDS011;41678;52.126;20.664;2023-04-03T03:22:19;1.65;;;0.60;;
55758;SDS011;41678;52.126;20.664;2023-04-03T03:27:39;5.78;;;1.25;;
55758;SDS011;41678;52.126;20.664;2023-04-03T03:33:00;2.70;;;0.98;;
55758;SDS011;41678;52.126;20.664;2023-04-03T03:38:20;2.13;;;0.75;;
55758;SDS011;41678;52.126;20.664;2023-04-03T03:43:40;8.15;;;1.42;;
55758;SDS011;41678;52.126;20.664;2023-04-03T03:49:01;0.75;;;0.50;;
55758;SDS011;41678;52.126;20.664;2023-04-03T03:54:20;1.95;;;0.88;;
55758;SDS011;41678;52.126;20.664;2023-04-03T03:59:40;11.13;;;0.80;;
55758;SDS011;41678;52.126;20.664;2023-04-03T04:05:01;1.23;;;0.68;;
55758;SDS011;41678;52.126;20.664;2023-04-03T04:10:21;2.88;;;1.15;;
55758;SDS011;41678;52.126;20.664;2023-04-03T04:15:42;3.47;;;0.95;;
55758;SDS011;41678;52.126;20.664;2023-04-03T04:21:02;1.77;;;0.70;;
55758;SDS011;41678;52.126;20.664;2023-04-03T04:26:23;5.60;;;1.45;;
55758;SDS011;41678;52.126;20.664;2023-04-03T04:31:43;2.40;;;0.75;;
55758;SDS011;41678;52.126;20.664;2023-04-03T04:37:03;4.72;;;1.48;;
55758;SDS011;41678;52.126;20.664;2023-04-03T04:42:23;1.00;;;0.50;;
55758;SDS011;41678;52.126;20.664;2023-04-03T04:47:43;1.95;;;0.70;;
55758;SDS011;41678;52.126;20.664;2023-04-03T04:53:05;1.95;;;0.82;;
55758;SDS011;41678;52.126;20.664;2023-04-03T04:58:25;1.77;;;0.80;;
55758;SDS011;41678;52.126;20.664;2023-04-03T05:03:45;4.65;;;0.98;;
55758;SDS011;41678;52.126;20.664;2023-04-03T05:09:05;0.75;;;0.43;;
55758;SDS011;41678;52.126;20.664;2023-04-03T05:14:26;0.98;;;0.55;;
55758;SDS011;41678;52.126;20.664;2023-04-03T05:19:48;0.82;;;0.43;;
55758;SDS011;41678;52.126;20.664;2023-04-03T05:25:08;0.25;;;0.22;;
55758;SDS011;41678;52.126;20.664;2023-04-03T05:30:29;2.42;;;0.73;;
55758;SDS011;41678;52.126;20.664;2023-04-03T05:35:49;2.35;;;1.02;;
55758;SDS011;41678;52.126;20.664;2023-04-03T05:41:13;1.85;;;0.82;;
55758;SDS011;41678;52.126;20.664;2023-04-03T05:46:37;0.32;;;0.32;;
55758;SDS011;41678;52.126;20.664;2023-04-03T05:52:00;1.50;;;0.85;;
55758;SDS011;41678;52.126;20.664;2023-04-03T05:57:24;3.05;;;1.10;;
55758;SDS011;41678;52.126;20.664;2023-04-03T06:02:44;1.92;;;0.82;;
55758;SDS011;41678;52.126;20.664;2023-04-03T06:08:10;3.80;;;1.85;;
55758;SDS011;41678;52.126;20.664;2023-04-03T06:13:30;1.92;;;0.60;;
55758;SDS011;41678;52.126;20.664;2023-04-03T06:18:50;4.93;;;1.33;;
55758;SDS011;41678;52.126;20.664;2023-04-03T06:24:12;4.38;;;1.15;;
55758;SDS011;41678;52.126;20.664;2023-04-03T06:29:34;4.38;;;1.33;;
55758;SDS011;41678;52.126;20.664;2023-04-03T06:34:54;1.60;;;0.70;;
55758;SDS011;41678;52.126;20.664;2023-04-03T06:40:15;1.80;;;0.73;;
55758;SDS011;41678;52.126;20.664;2023-04-03T06:45:40;2.33;;;0.93;;
55758;SDS011;41678;52.126;20.664;2023-04-03T06:51:00;0.40;;;0.30;;
55758;SDS011;41678;52.126;20.664;2023-04-03T06:56:20;3.53;;;1.33;;
55758;SDS011;41678;52.126;20.664;2023-04-03T07:01:41;2.30;;;0.70;;
55758;SDS011;41678;52.126;20.664;2023-04-03T07:07:00;2.67;;;1.45;;
55758;SDS011;41678;52.126;20.664;2023-04-03T07:12:20;2.50;;;0.80;;
55758;SDS011;41678;52.126;20.664;2023-04-03T07:17:40;2.15;;;0.93;;
55758;SDS011;41678;52.126;20.664;2023-04-03T07:23:00;1.10;;;0.65;;
55758;SDS011;41678;52.126;20.664;2023-04-03T07:28:21;8.57;;;1.50;;
55758;SDS011;41678;52.126;20.664;2023-04-03T07:33:42;1.73;;;0.77;;
55758;SDS011;41678;52.126;20.664;2023-04-03T07:39:03;3.47;;;0.90;;
55758;SDS011;41678;52.126;20.664;2023-04-03T07:44:23;3.80;;;1.45;;
55758;SDS011;41678;52.126;20.664;2023-04-03T07:49:43;0.52;;;0.40;;
55758;SDS011;41678;52.126;20.664;2023-04-03T07:55:03;1.75;;;0.70;;
55758;SDS011;41678;52.126;20.664;2023-04-03T08:00:23;0.90;;;0.60;;
55758;SDS011;41678;52.126;20.664;2023-04-03T08:05:44;5.65;;;1.27;;
55758;SDS011;41678;52.126;20.664;2023-04-03T08:11:04;5.35;;;1.38;;
55758;SDS011;41678;52.126;20.664;2023-04-03T08:16:25;9.93;;;1.60;;
55758;SDS011;41678;52.126;20.664;2023-04-03T08:21:46;3.83;;;1.20;;
55758;SDS011;41678;52.126;20.664;2023-04-03T08:27:06;13.73;;;0.95;;
55758;SDS011;41678;52.126;20.664;2023-04-03T08:32:26;4.03;;;1.17;;
55758;SDS011;41678;52.126;20.664;2023-04-03T08:37:45;3.15;;;0.55;;
55758;SDS011;41678;52.126;20.664;2023-04-03T08:48:47;5.47;;;1.05;;
55758;SDS011;41678;52.126;20.664;2023-04-03T08:59:38;2.85;;;0.98;;
55758;SDS011;41678;52.126;20.664;2023-04-03T09:04:59;4.88;;;1.02;;
55758;SDS011;41678;52.126;20.664;2023-04-03T09:10:27;7.03;;;1.05;;
55758;SDS011;41678;52.126;20.664;2023-04-03T09:15:51;4.47;;;0.85;;
55758;SDS011;41678;52.126;20.664;2023-04-03T09:21:15;2.63;;;0.80;;
55758;SDS011;41678;52.126;20.664;2023-04-03T09:26:53;0.73;;;0.30;;
55758;SDS011;41678;52.126;20.664;2023-04-03T09:32:28;0.85;;;0.45;;
55758;SDS011;41678;52.126;20.664;2023-04-03T09:37:53;9.40;;;1.48;;
55758;SDS011;41678;52.126;20.664;2023-04-03T09:43:38;2.00;;;0.80;;
55758;SDS011;41678;52.126;20.664;2023-04-03T09:48:59;6.82;;;1.23;;
55758;SDS011;41678;52.126;20.664;2023-04-03T09:54:38;1.77;;;0.57;;
55758;SDS011;41678;52.126;20.664;2023-04-03T10:00:01;2.30;;;0.90;;
55758;SDS011;41678;52.126;20.664;2023-04-03T10:05:32;8.15;;;0.93;;
55758;SDS011;41678;52.126;20.664;2023-04-03T10:11:07;3.33;;;1.08;;
55758;SDS011;41678;52.126;20.664;2023-04-03T10:21:59;3.97;;;1.10;;
55758;SDS011;41678;52.126;20.664;2023-04-03T10:38:51;2.60;;;0.88;;
55758;SDS011;41678;52.126;20.664;2023-04-03T11:01:13;2.33;;;0.90;;
55758;SDS011;41678;52.126;20.664;2023-04-03T11:06:42;8.18;;;1.30;;
55758;SDS011;41678;52.126;20.664;2023-04-03T11:12:11;2.30;;;0.73;;
55758;SDS011;41678;52.126;20.664;2023-04-03T11:17:38;2.13;;;0.80;;
55758;SDS011;41678;52.126;20.664;2023-04-03T11:23:06;3.35;;;0.82;;
55758;SDS011;41678;52.126;20.664;2023-04-03T11:28:40;1.55;;;0.70;;
55758;SDS011;41678;52.126;20.664;2023-04-03T11:39:47;2.05;;;0.82;;
55758;SDS011;41678;52.126;20.664;2023-04-03T11:50:52;2.13;;;0.82;;
55758;SDS011;41678;52.126;20.664;2023-04-03T11:56:33;0.82;;;0.40;;
55758;SDS011;41678;52.126;20.664;2023-04-03T12:01:55;3.75;;;0.88;;
55758;SDS011;41678;52.126;20.664;2023-04-03T12:07:18;1.75;;;0.52;;
55758;SDS011;41678;52.126;20.664;2023-04-03T12:12:39;5.22;;;0.80;;
55758;SDS011;41678;52.126;20.664;2023-04-03T12:18:19;1.55;;;0.50;;
55758;SDS011;41678;52.126;20.664;2023-04-03T12:29:33;1.40;;;0.50;;
55758;SDS011;41678;52.126;20.664;2023-04-03T12:51:34;5.13;;;1.02;;
55758;SDS011;41678;52.126;20.664;2023-04-03T13:02:40;4.13;;;1.33;;
55758;SDS011;41678;52.126;20.664;2023-04-03T13:08:05;3.95;;;0.95;;
55758;SDS011;41678;52.126;20.664;2023-04-03T13:13:29;7.10;;;2.17;;
55758;SDS011;41678;52.126;20.664;2023-04-03T13:18:53;2.92;;;0.90;;
55758;SDS011;41678;52.126;20.664;2023-04-03T13:24:14;4.78;;;1.13;;
55758;SDS011;41678;52.126;20.664;2023-04-03T13:29:35;4.80;;;2.35;;
55758;SDS011;41678;52.126;20.664;2023-04-03T13:34:58;1.05;;;0.50;;
55758;SDS011;41678;52.126;20.664;2023-04-03T13:40:19;2.80;;;0.60;;
55758;SDS011;41678;52.126;20.664;2023-04-03T13:45:39;6.18;;;0.77;;
55758;SDS011;41678;52.126;20.664;2023-04-03T13:51:00;2.58;;;1.00;;
55758;SDS011;41678;52.126;20.664;2023-04-03T14:02:04;13.18;;;1.17;;
55758;SDS011;41678;52.126;20.664;2023-04-03T14:07:32;11.90;;;1.40;;
55758;SDS011;41678;52.126;20.664;2023-04-03T14:12:52;6.10;;;1.00;;
55758;SDS011;41678;52.126;20.664;2023-04-03T14:18:12;5.57;;;1.33;;
55758;SDS011;41678;52.126;20.664;2023-04-03T14:23:33;4.60;;;0.98;;
55758;SDS011;41678;52.126;20.664;2023-04-03T14:28:54;1.63;;;0.68;;
55758;SDS011;41678;52.126;20.664;2023-04-03T14:34:14;2.35;;;0.80;;
55758;SDS011;41678;52.126;20.664;2023-04-03T14:39:34;4.22;;;0.90;;
55758;SDS011;41678;52.126;20.664;2023-04-03T14:44:54;7.80;;;1.38;;
55758;SDS011;41678;52.126;20.664;2023-04-03T14:50:16;3.42;;;0.80;;
55758;SDS011;41678;52.126;20.664;2023-04-03T14:55:41;6.70;;;1.70;;
55758;SDS011;41678;52.126;20.664;2023-04-03T15:01:03;4.05;;;1.08;;
55758;SDS011;41678;52.126;20.664;2023-04-03T15:06:23;4.80;;;1.23;;
55758;SDS011;41678;52.126;20.664;2023-04-03T15:11:44;4.30;;;1.40;;
55758;SDS011;41678;52.126;20.664;2023-04-03T15:17:04;3.30;;;1.00;;
55758;SDS011;41678;52.126;20.664;2023-04-03T15:22:25;4.23;;;1.07;;
55758;SDS011;41678;52.126;20.664;2023-04-03T15:27:44;2.08;;;0.65;;
55758;SDS011;41678;52.126;20.664;2023-04-03T15:33:04;4.72;;;1.40;;
55758;SDS011;41678;52.126;20.664;2023-04-03T15:38:23;0.88;;;0.40;;
55758;SDS011;41678;52.126;20.664;2023-04-03T15:43:43;4.00;;;1.05;;
55758;SDS011;41678;52.126;20.664;2023-04-03T15:49:03;14.88;;;1.83;;
55758;SDS011;41678;52.126;20.664;2023-04-03T15:54:24;4.35;;;1.45;;
55758;SDS011;41678;52.126;20.664;2023-04-03T15:59:44;6.72;;;1.95;;
55758;SDS011;41678;52.126;20.664;2023-04-03T16:05:04;6.53;;;2.40;;
55758;SDS011;41678;52.126;20.664;2023-04-03T16:10:24;21.60;;;2.45;;
55758;SDS011;41678;52.126;20.664;2023-04-03T16:15:44;9.88;;;2.28;;
55758;SDS011;41678;52.126;20.664;2023-04-03T16:21:04;10.05;;;1.80;;
55758;SDS011;41678;52.126;20.664;2023-04-03T16:31:45;6.18;;;1.40;;
55758;SDS011;41678;52.126;20.664;2023-04-03T16:37:06;6.50;;;1.98;;
55758;SDS011;41678;52.126;20.664;2023-04-03T16:47:47;6.40;;;1.20;;
55758;SDS011;41678;52.126;20.664;2023-04-03T16:53:06;2.10;;;0.85;;
55758;SDS011;41678;52.126;20.664;2023-04-03T16:58:28;3.78;;;1.10;;
55758;SDS011;41678;52.126;20.664;2023-04-03T17:03:47;5.63;;;1.38;;
55758;SDS011;41678;52.126;20.664;2023-04-03T17:09:08;7.68;;;2.10;;
55758;SDS011;41678;52.126;20.664;2023-04-03T17:14:28;5.13;;;1.67;;
55758;SDS011;41678;52.126;20.664;2023-04-03T17:19:48;8.63;;;2.00;;
55758;SDS011;41678;52.126;20.664;2023-04-03T17:25:08;4.57;;;1.42;;
55758;SDS011;41678;52.126;20.664;2023-04-03T17:30:29;6.35;;;2.60;;
55758;SDS011;41678;52.126;20.664;2023-04-03T17:35:48;9.00;;;2.10;;
55758;SDS011;41678;52.126;20.664;2023-04-03T17:41:08;11.45;;;3.83;;
55758;SDS011;41678;52.126;20.664;2023-04-03T17:46:27;7.80;;;1.73;;
55758;SDS011;41678;52.126;20.664;2023-04-03T17:51:48;8.65;;;2.45;;
55758;SDS011;41678;52.126;20.664;2023-04-03T17:57:07;12.68;;;2.28;;
55758;SDS011;41678;52.126;20.664;2023-04-03T18:02:27;8.05;;;2.60;;
55758;SDS011;41678;52.126;20.664;2023-04-03T18:07:48;5.30;;;1.73;;
55758;SDS011;41678;52.126;20.664;2023-04-03T18:13:10;7.78;;;2.58;;
55758;SDS011;41678;52.126;20.664;2023-04-03T18:18:33;5.97;;;2.15;;
55758;SDS011;41678;52.126;20.664;2023-04-03T18:23:53;6.97;;;2.50;;
55758;SDS011;41678;52.126;20.664;2023-04-03T18:29:14;8.98;;;2.42;;
55758;SDS011;41678;52.126;20.664;2023-04-03T18:34:34;4.82;;;1.95;;
55758;SDS011;41678;52.126;20.664;2023-04-03T18:39:54;8.38;;;3.00;;
55758;SDS011;41678;52.126;20.664;2023-04-03T18:45:13;15.68;;;2.33;;
55758;SDS011;41678;52.126;20.664;2023-04-03T18:50:37;8.50;;;2.80;;
55758;SDS011;41678;52.126;20.664;2023-04-03T18:55:57;8.10;;;1.80;;
55758;SDS011;41678;52.126;20.664;2023-04-03T19:01:17;6.50;;;1.80;;
55758;SDS011;41678;52.126;20.664;2023-04-03T19:06:37;7.95;;;2.22;;
55758;SDS011;41678;52.126;20.664;2023-04-03T19:11:57;3.15;;;1.65;;
55758;SDS011;41678;52.126;20.664;2023-04-03T19:17:16;8.73;;;2.20;;
55758;SDS011;41678;52.126;20.664;2023-04-03T19:22:36;8.63;;;2.47;;
55758;SDS011;41678;52.126;20.664;2023-04-03T19:27:56;6.68;;;2.15;;
55758;SDS011;41678;52.126;20.664;2023-04-03T19:33:15;15.00;;;3.40;;
55758;SDS011;41678;52.126;20.664;2023-04-03T19:38:35;6.97;;;2.67;;
55758;SDS011;41678;52.126;20.664;2023-04-03T19:43:55;5.68;;;2.42;;
55758;SDS011;41678;52.126;20.664;2023-04-03T19:49:15;17.50;;;2.72;;
55758;SDS011;41678;52.126;20.664;2023-04-03T19:54:35;9.30;;;3.55;;
55758;SDS011;41678;52.126;20.664;2023-04-03T19:59:55;7.78;;;3.03;;
55758;SDS011;41678;52.126;20.664;2023-04-03T20:05:14;11.13;;;3.60;;
55758;SDS011;41678;52.126;20.664;2023-04-03T20:10:34;8.90;;;2.70;;
55758;SDS011;41678;52.126;20.664;2023-04-03T20:16:02;8.13;;;2.95;;
55758;SDS011;41678;52.126;20.664;2023-04-03T20:21:27;21.67;;;3.75;;
55758;SDS011;41678;52.126;20.664;2023-04-03T20:26:48;8.10;;;3.05;;
55758;SDS011;41678;52.126;20.664;2023-04-03T20:32:07;11.73;;;3.30;;
55758;SDS011;41678;52.126;20.664;2023-04-03T20:42:49;8.23;;;3.00;;
55758;SDS011;41678;52.126;20.664;2023-04-03T20:48:10;6.05;;;2.20;;
55758;SDS011;41678;52.126;20.664;2023-04-03T20:53:31;4.57;;;1.90;;
55758;SDS011;41678;52.126;20.664;2023-04-03T20:58:51;5.45;;;1.35;;
55758;SDS011;41678;52.126;20.664;2023-04-03T21:04:21;8.55;;;2.40;;
55758;SDS011;41678;52.126;20.664;2023-04-03T21:21:15;7.93;;;1.90;;
55758;SDS011;41678;52.126;20.664;2023-04-03T21:26:36;3.30;;;1.55;;
55758;SDS011;41678;52.126;20.664;2023-04-03T21:31:57;5.07;;;1.80;;
55758;SDS011;41678;52.126;20.664;2023-04-03T21:37:17;9.25;;;2.60;;
55758;SDS011;41678;52.126;20.664;2023-04-03T21:42:37;6.55;;;1.80;;
55758;SDS011;41678;52.126;20.664;2023-04-03T21:47:57;6.40;;;2.42;;
55758;SDS011;41678;52.126;20.664;2023-04-03T21:53:20;7.68;;;2.00;;
55758;SDS011;41678;52.126;20.664;2023-04-03T21:58:40;8.02;;;1.85;;
55758;SDS011;41678;52.126;20.664;2023-04-03T22:04:00;6.03;;;1.65;;
55758;SDS011;41678;52.126;20.664;2023-04-03T22:09:21;11.18;;;2.38;;
55758;SDS011;41678;52.126;20.664;2023-04-03T22:14:40;9.80;;;2.22;;
55758;SDS011;41678;52.126;20.664;2023-04-03T22:20:00;5.82;;;2.05;;
55758;SDS011;41678;52.126;20.664;2023-04-03T22:25:20;10.23;;;2.53;;
55758;SDS011;41678;52.126;20.664;2023-04-03T22:30:39;7.72;;;1.98;;
55758;SDS011;41678;52.126;20.664;2023-04-03T22:35:59;9.98;;;1.90;;
55758;SDS011;41678;52.126;20.664;2023-04-03T22:41:19;4.93;;;2.67;;
55758;SDS011;41678;52.126;20.664;2023-04-03T22:46:39;4.30;;;1.88;;
55758;SDS011;41678;52.126;20.664;2023-04-03T22:51:58;8.30;;;2.55;;
55758;SDS011;41678;52.126;20.664;2023-04-03T22:57:18;8.63;;;2.30;;
55758;SDS011;41678;52.126;20.664;2023-04-03T23:02:38;7.57;;;2.42;;
55758;SDS011;41678;52.126;20.664;2023-04-03T23:07:57;5.53;;;2.10;;
55758;SDS011;41678;52.126;20.664;2023-04-03T23:13:16;6.78;;;1.90;;
55758;SDS011;41678;52.126;20.664;2023-04-03T23:18:36;5.30;;;2.05;;
55758;SDS011;41678;52.126;20.664;2023-04-03T23:29:17;18.35;;;2.33;;
55758;SDS011;41678;52.126;20.664;2023-04-03T23:34:36;10.35;;;2.20;;
55758;SDS011;41678;52.126;20.664;2023-04-03T23:39:56;4.90;;;1.83;;
55758;SDS011;41678;52.126;20.664;2023-04-03T23:45:15;8.35;;;2.03;;
55758;SDS011;41678;52.126;20.664;2023-04-03T23:50:35;4.25;;;1.52;;
55758;SDS011;41678;52.126;20.664;2023-04-03T23:55:55;10.25;;;2.33;;
